Time;durP1;ratioP1;P1;durP2;ratioP2;P2;SDS_P1;SDS_P2;PMS_P1;PMS_P2;Temp;Humidity;BMP_temperature;BMP_pressure;BME280_temperature;BME280_humidity;BME280_pressure;Samples;Min_cycle;Max_cycle;Signal;HPM_P1;HPM_P2
2023/11/04 00:01:40;;;;;;;0.98;0.60;;;;;;;21.78;28.84;97890.38;4498682;28;20878;-64
2023/11/04 00:03:51;;;;;;;0.70;0.50;;;;;;;21.80;29.06;97889.91;4499154;28;20030;-64
2023/11/04 00:06:01;;;;;;;0.57;0.40;;;;;;;21.72;28.71;97874.84;4506680;28;20048;-64
2023/11/04 00:08:15;;;;;;;0.70;0.50;;;;;;;21.71;28.72;97876.09;4498603;28;20042;-64
2023/11/04 00:10:26;;;;;;;0.70;0.60;;;;;;;21.74;28.65;97880.97;4500862;28;20025;-64
2023/11/04 00:12:37;;;;;;;0.40;0.40;;;;;;;21.70;29.15;97871.63;4497679;28;20042;-64
2023/11/04 00:14:47;;;;;;;0.45;0.40;;;;;;;21.76;29.42;97880.56;4506937;28;20038;-64
2023/11/04 00:16:57;;;;;;;0.63;0.50;;;;;;;21.76;29.04;97878.50;4498856;28;20089;-64
2023/11/04 00:19:08;;;;;;;0.50;0.45;;;;;;;21.66;28.79;97867.22;4499190;28;20483;-64
2023/11/04 00:21:19;;;;;;;0.90;0.40;;;;;;;21.72;28.91;97874.06;4498300;28;20042;-64
2023/11/04 00:23:29;;;;;;;1.30;0.52;;;;;;;21.74;28.86;97874.44;4497575;28;20042;-64
2023/11/04 00:25:39;;;;;;;1.55;0.40;;;;;;;21.75;29.00;97871.16;4500119;28;20049;-64
2023/11/04 00:27:50;;;;;;;0.65;0.50;;;;;;;21.74;29.21;97875.22;4501122;28;20034;-64
2023/11/04 00:30:00;;;;;;;0.68;0.40;;;;;;;21.73;28.90;97872.78;4496828;28;20474;-64
2023/11/04 00:32:11;;;;;;;0.60;0.40;;;;;;;21.76;29.20;97878.50;4497508;28;20018;-64
2023/11/04 00:34:21;;;;;;;0.30;0.30;;;;;;;21.76;29.81;97884.25;4495658;28;20034;-64
2023/11/04 00:36:31;;;;;;;0.47;0.30;;;;;;;21.75;29.41;97871.16;4496908;28;20096;-64
2023/11/04 00:38:42;;;;;;;0.40;0.40;;;;;;;21.74;29.30;97869.47;4500492;28;20065;-65
2023/11/04 00:40:52;;;;;;;0.45;0.30;;;;;;;21.75;29.03;97871.16;4487532;28;20035;-64
2023/11/04 00:43:03;;;;;;;1.15;0.30;;;;;;;21.73;29.17;97862.13;4494627;28;20097;-64
2023/11/04 00:45:14;;;;;;;0.77;0.30;;;;;;;21.73;29.11;97862.13;4498863;28;20042;-64
2023/11/04 00:47:24;;;;;;;0.30;0.30;;;;;;;21.67;28.96;97846.69;4496262;28;20038;-64
2023/11/04 00:49:35;;;;;;;0.57;0.40;;;;;;;21.73;29.62;97865.00;4498730;28;20045;-64
2023/11/04 00:51:45;;;;;;;0.70;0.35;;;;;;;21.72;29.21;97866.22;4497495;28;20627;-64
2023/11/04 00:53:56;;;;;;;0.45;0.30;;;;;;;21.71;29.35;97864.63;4494846;28;20152;-64
2023/11/04 00:56:07;;;;;;;0.40;0.22;;;;;;;21.73;29.44;97867.06;4504864;28;20036;-64
2023/11/04 00:58:17;;;;;;;1.02;0.40;;;;;;;21.74;29.72;97866.59;4497066;28;20487;-64
2023/11/04 01:00:29;;;;;;;0.28;0.22;;;;;;;21.72;29.36;97869.09;4496775;28;20062;-64
2023/11/04 01:02:39;;;;;;;0.20;0.20;;;;;;;21.75;29.50;97873.16;4498513;28;21573;-64
2023/11/04 01:04:50;;;;;;;0.45;0.40;;;;;;;21.67;30.11;97861.03;4496722;28;20129;-64
2023/11/04 01:07:00;;;;;;;0.65;0.30;;;;;;;21.73;29.63;97867.88;4504121;28;20034;-64
2023/11/04 01:09:12;;;;;;;0.43;0.30;;;;;;;21.68;29.67;97854.03;4496794;28;20033;-64
2023/11/04 01:11:23;;;;;;;0.30;0.20;;;;;;;21.72;29.53;97851.09;4496381;28;20095;-64
2023/11/04 01:13:34;;;;;;;0.65;0.40;;;;;;;21.67;29.42;97843.81;4505859;28;20057;-64
2023/11/04 01:15:45;;;;;;;0.30;0.20;;;;;;;21.61;29.79;97836.13;4506289;28;20439;-64
2023/11/04 01:17:55;;;;;;;0.73;0.40;;;;;;;21.72;29.54;97860.50;4497783;28;20116;-64
2023/11/04 01:20:08;;;;;;;0.60;0.30;;;;;;;21.72;29.27;97859.69;4498096;28;20034;-64
2023/11/04 01:22:18;;;;;;;1.27;0.40;;;;;;;21.70;29.26;97850.72;4505537;28;20026;-64
2023/11/04 01:24:28;;;;;;;0.15;0.15;;;;;;;21.70;29.25;97845.78;4496955;28;20491;-64
2023/11/04 01:26:40;;;;;;;0.40;0.30;;;;;;;21.69;29.65;97849.09;4496537;28;20169;-64
2023/11/04 01:28:50;;;;;;;0.55;0.30;;;;;;;21.70;29.14;97847.84;4496854;28;20656;-64
2023/11/04 01:31:01;;;;;;;0.45;0.30;;;;;;;21.67;29.65;97835.19;4501050;28;20150;-64
2023/11/04 01:33:11;;;;;;;0.35;0.30;;;;;;;21.68;29.38;97844.59;4496166;28;20040;-64
2023/11/04 01:35:22;;;;;;;0.50;0.30;;;;;;;21.69;29.41;97838.41;4497811;28;20125;-64
2023/11/04 01:37:32;;;;;;;0.47;0.28;;;;;;;21.66;29.28;97838.50;4500316;28;20524;-64
2023/11/04 01:39:42;;;;;;;0.65;0.28;;;;;;;21.66;29.19;97839.28;4498352;28;20447;-64
2023/11/04 01:41:53;;;;;;;1.30;0.30;;;;;;;21.66;29.65;97841.38;4497893;28;20037;-64
2023/11/04 01:44:04;;;;;;;0.22;0.20;;;;;;;21.67;29.21;97842.97;4496902;28;20031;-64
2023/11/04 01:46:22;;;;;;;0.28;0.20;;;;;;;21.69;29.32;97843.38;4496229;28;20456;-64
2023/11/04 01:48:32;;;;;;;0.40;0.30;;;;;;;21.67;29.68;97846.69;4496008;28;20046;-64
2023/11/04 01:50:43;;;;;;;0.45;0.30;;;;;;;21.67;29.46;97838.06;4496992;28;20446;-64
2023/11/04 01:52:54;;;;;;;0.40;0.22;;;;;;;21.68;29.67;97833.94;4497779;28;20046;-64
2023/11/04 01:55:08;;;;;;;0.30;0.30;;;;;;;21.68;29.30;97839.66;4495054;28;20391;-64
2023/11/04 01:57:18;;;;;;;0.65;0.30;;;;;;;21.67;29.72;97842.97;4495779;28;20042;-64
2023/11/04 01:59:31;;;;;;;0.95;0.30;;;;;;;21.70;29.25;97840.03;4488456;28;20027;-64
2023/11/04 02:01:45;;;;;;;0.30;0.22;;;;;;;21.68;29.58;97828.19;4494466;28;20041;-64
2023/11/04 02:03:56;;;;;;;0.73;0.30;;;;;;;21.67;29.34;97826.56;4489568;28;20030;-64
2023/11/04 02:06:06;;;;;;;0.57;0.20;;;;;;;21.69;29.25;97820.41;4494559;28;20042;-64
2023/11/04 02:08:18;;;;;;;0.55;0.25;;;;;;;21.68;29.67;97821.63;4496859;28;20034;-64
2023/11/04 02:10:29;;;;;;;0.20;0.20;;;;;;;21.63;29.59;97814.34;4481404;28;20038;-64
2023/11/04 02:12:41;;;;;;;0.57;0.28;;;;;;;21.66;29.41;97810.59;4484276;28;20416;-64
2023/11/04 02:14:52;;;;;;;0.63;0.22;;;;;;;21.67;29.46;97815.09;4500577;28;20804;-64
2023/11/04 02:17:03;;;;;;;0.63;0.20;;;;;;;21.66;29.45;97816.31;4496901;28;20044;-64
2023/11/04 02:19:14;;;;;;;0.20;0.20;;;;;;;21.66;29.17;97809.81;4494676;28;20415;-64
2023/11/04 02:21:24;;;;;;;0.70;0.30;;;;;;;21.61;29.57;97807.44;4500243;28;20026;-64
2023/11/04 02:23:35;;;;;;;0.38;0.22;;;;;;;21.63;29.49;97810.66;4496887;28;20045;-64
2023/11/04 02:25:45;;;;;;;0.40;0.30;;;;;;;21.66;29.40;97813.47;4487942;28;20550;-64
2023/11/04 02:27:55;;;;;;;0.45;0.28;;;;;;;21.67;29.30;97814.28;4496688;28;21054;-64
2023/11/04 02:30:06;;;;;;;0.43;0.22;;;;;;;21.65;29.74;97803.25;4506456;28;20037;-64
2023/11/04 02:32:17;;;;;;;0.30;0.15;;;;;;;21.65;29.71;97796.69;4497226;28;20163;-64
2023/11/04 02:34:27;;;;;;;0.40;0.20;;;;;;;21.63;29.24;97793.44;4496089;28;20124;-64
2023/11/04 02:36:38;;;;;;;0.20;0.20;;;;;;;21.65;29.72;97800.38;4493821;28;20104;-64
2023/11/04 02:38:48;;;;;;;0.20;0.20;;;;;;;21.63;29.52;97790.56;4495961;28;20117;-64
2023/11/04 02:40:58;;;;;;;0.35;0.20;;;;;;;21.58;29.53;97780.41;4495714;28;20041;-64
2023/11/04 02:43:09;;;;;;;0.28;0.20;;;;;;;21.65;29.50;97790.94;4495311;28;20037;-64
2023/11/04 02:45:19;;;;;;;0.25;0.20;;;;;;;21.63;29.51;97782.75;4494957;28;20058;-64
2023/11/04 02:47:30;;;;;;;0.40;0.20;;;;;;;21.63;29.48;97791.38;4496615;28;20023;-64
2023/11/04 02:49:41;;;;;;;0.20;0.20;;;;;;;21.61;29.47;97785.25;4494588;28;20034;-64
2023/11/04 02:51:51;;;;;;;0.40;0.20;;;;;;;21.64;29.58;97795.88;4496653;28;20036;-64
2023/11/04 02:54:01;;;;;;;0.25;0.22;;;;;;;21.63;29.62;97787.69;4500049;28;20093;-64
2023/11/04 02:56:15;;;;;;;0.43;0.30;;;;;;;21.60;29.69;97782.84;4493786;28;20042;-64
2023/11/04 02:58:25;;;;;;;0.22;0.22;;;;;;;21.62;29.51;97774.59;4497151;28;20030;-63
2023/11/04 03:00:35;;;;;;;0.30;0.20;;;;;;;21.63;29.79;97779.91;4495756;28;20387;-64
2023/11/04 03:02:46;;;;;;;0.30;0.20;;;;;;;21.63;29.31;97776.22;4496706;28;20064;-64
2023/11/04 03:04:56;;;;;;;0.20;0.20;;;;;;;21.64;29.28;97778.66;4496552;28;20047;-64
2023/11/04 03:07:07;;;;;;;0.22;0.20;;;;;;;21.60;29.87;97772.19;4496266;28;20030;-64
2023/11/04 03:09:17;;;;;;;0.50;0.30;;;;;;;21.60;29.71;97763.56;4498133;28;20030;-64
2023/11/04 03:11:28;;;;;;;0.20;0.20;;;;;;;21.63;29.75;97771.28;4494608;28;20081;-64
2023/11/04 03:13:38;;;;;;;0.10;0.10;;;;;;;21.58;29.56;97757.44;4495988;28;20034;-64
2023/11/04 03:15:49;;;;;;;0.30;0.20;;;;;;;21.62;29.75;97768.84;4497150;28;20031;-64
2023/11/04 03:18:01;;;;;;;0.15;0.10;;;;;;;21.60;29.29;97763.56;4496550;28;20047;-64
2023/11/04 03:20:12;;;;;;;0.82;0.28;;;;;;;21.62;29.93;97752.47;4512390;28;20045;-64
2023/11/04 03:22:23;;;;;;;0.20;0.20;;;;;;;21.50;29.94;97740.84;4498171;28;20507;-64
2023/11/04 03:24:33;;;;;;;0.47;0.17;;;;;;;21.60;29.73;97757.81;4499833;28;20104;-64
2023/11/04 03:26:44;;;;;;;0.35;0.30;;;;;;;21.63;29.51;97754.06;4499551;28;20046;-64
2023/11/04 03:28:54;;;;;;;0.28;0.20;;;;;;;21.58;29.95;97740.22;4508204;28;20513;-64
2023/11/04 03:31:05;;;;;;;0.30;0.20;;;;;;;21.56;29.91;97748.50;4499288;28;20049;-64
2023/11/04 03:33:16;;;;;;;0.30;0.30;;;;;;;21.62;29.96;97743.03;4497756;28;20050;-64
2023/11/04 03:35:26;;;;;;;0.35;0.30;;;;;;;21.60;30.07;97742.66;4499320;28;20103;-64
2023/11/04 03:37:37;;;;;;;0.20;0.20;;;;;;;21.60;29.75;97743.47;4499202;28;20065;-64
2023/11/04 03:39:47;;;;;;;0.28;0.20;;;;;;;21.61;30.06;97747.94;4500560;28;20087;-64
2023/11/04 03:41:57;;;;;;;0.40;0.30;;;;;;;21.60;29.97;97742.66;4498471;28;20113;-64
2023/11/04 03:44:08;;;;;;;0.30;0.17;;;;;;;21.57;29.67;97727.13;4498033;28;20943;-64
2023/11/04 03:46:19;;;;;;;0.13;0.13;;;;;;;21.58;29.50;97728.75;4498471;28;20054;-64
2023/11/04 03:48:29;;;;;;;0.22;0.20;;;;;;;21.61;29.96;97730.72;4496692;28;20030;-64
2023/11/04 03:50:39;;;;;;;0.30;0.20;;;;;;;21.60;30.04;97714.78;4498266;28;20037;-64
2023/11/04 03:52:50;;;;;;;0.25;0.20;;;;;;;21.58;30.13;97722.22;4497898;28;20125;-64
2023/11/04 03:55:00;;;;;;;0.50;0.20;;;;;;;21.53;29.62;97709.16;4499524;28;20116;-64
2023/11/04 03:57:11;;;;;;;0.30;0.20;;;;;;;21.52;29.70;97706.75;4497265;28;20041;-64
2023/11/04 03:59:21;;;;;;;0.43;0.30;;;;;;;21.58;29.93;97720.13;4496397;28;20129;-64
2023/11/04 04:01:39;;;;;;;0.20;0.20;;;;;;;21.60;29.61;97725.44;4498072;28;20046;-64
2023/11/04 04:03:51;;;;;;;0.30;0.20;;;;;;;21.57;29.49;97721.41;4497058;28;20034;-64
2023/11/04 04:06:01;;;;;;;0.20;0.20;;;;;;;21.54;29.81;97710.81;4499938;28;20572;-64
2023/11/04 04:08:12;;;;;;;0.40;0.20;;;;;;;21.49;29.51;97702.72;4496499;28;20104;-64
2023/11/04 04:10:22;;;;;;;0.20;0.20;;;;;;;21.55;29.86;97712.41;4506590;28;20065;-64
2023/11/04 04:12:32;;;;;;;0.38;0.30;;;;;;;21.55;29.59;97703.81;4497897;28;20130;-64
2023/11/04 04:14:45;;;;;;;0.52;0.20;;;;;;;21.60;29.66;97714.78;4498434;28;20554;-64
2023/11/04 04:16:55;;;;;;;0.22;0.20;;;;;;;21.58;29.66;97714.41;4498784;28;20616;-64
2023/11/04 04:19:06;;;;;;;0.35;0.20;;;;;;;21.58;30.01;97710.75;4499347;28;20141;-64
2023/11/04 04:21:16;;;;;;;0.20;0.20;;;;;;;21.46;29.70;97689.25;4498593;28;20049;-64
2023/11/04 04:23:26;;;;;;;0.22;0.20;;;;;;;21.56;29.82;97705.44;4498993;28;20029;-64
2023/11/04 04:25:40;;;;;;;0.10;0.10;;;;;;;21.56;29.98;97698.88;4498492;28;20629;-64
2023/11/04 04:27:50;;;;;;;0.35;0.30;;;;;;;21.57;29.80;97703.34;4497355;28;20030;-64
2023/11/04 04:30:00;;;;;;;0.30;0.20;;;;;;;21.56;29.78;97702.56;4497632;28;20034;-64
2023/11/04 04:32:12;;;;;;;0.40;0.25;;;;;;;21.54;30.28;97704.25;4495741;28;20228;-64
2023/11/04 04:34:22;;;;;;;0.90;0.30;;;;;;;21.59;29.99;97716.03;4497795;28;20057;-64
2023/11/04 04:36:33;;;;;;;0.20;0.20;;;;;;;21.57;29.77;97701.31;4497453;28;20453;-64
2023/11/04 04:38:44;;;;;;;0.30;0.30;;;;;;;21.50;29.75;97684.22;4498182;28;20499;-64
2023/11/04 04:40:55;;;;;;;0.40;0.28;;;;;;;21.55;29.79;97700.16;4499883;28;20029;-64
2023/11/04 04:43:05;;;;;;;0.52;0.30;;;;;;;21.57;30.16;97697.63;4494829;28;20076;-64
2023/11/04 04:45:18;;;;;;;0.22;0.20;;;;;;;21.60;29.75;97696.72;4496389;28;20069;-65
2023/11/04 04:47:28;;;;;;;0.22;0.20;;;;;;;21.59;29.87;97701.69;4497289;28;20097;-64
2023/11/04 04:49:39;;;;;;;0.40;0.20;;;;;;;21.51;30.02;97683.00;4499091;28;20116;-64
2023/11/04 04:51:49;;;;;;;0.30;0.10;;;;;;;21.58;30.24;97687.78;4497500;28;20077;-64
2023/11/04 04:53:59;;;;;;;0.20;0.15;;;;;;;21.57;30.20;97692.69;4497593;28;20479;-64
2023/11/04 04:56:10;;;;;;;0.20;0.20;;;;;;;21.54;29.91;97684.97;4494530;28;20129;-64
2023/11/04 04:58:22;;;;;;;0.82;0.20;;;;;;;21.57;30.14;97684.09;4497874;28;20034;-64
2023/11/04 05:00:32;;;;;;;0.68;0.17;;;;;;;21.58;30.28;97699.25;4498510;28;20038;-64
2023/11/04 05:02:42;;;;;;;0.32;0.20;;;;;;;21.56;30.27;97693.97;4496685;28;20050;-64
2023/11/04 05:04:53;;;;;;;0.10;0.10;;;;;;;21.55;30.53;97689.44;4496729;28;20105;-64
2023/11/04 05:07:03;;;;;;;0.35;0.20;;;;;;;21.50;30.22;97675.63;4497365;28;20038;-64
2023/11/04 05:09:14;;;;;;;0.35;0.20;;;;;;;21.56;29.86;97682.47;4500230;28;20042;-64
2023/11/04 05:11:24;;;;;;;0.30;0.20;;;;;;;21.50;29.84;97669.88;4496840;28;20030;-64
2023/11/04 05:13:38;;;;;;;0.20;0.20;;;;;;;21.59;30.26;97675.03;4497780;28;20043;-64
2023/11/04 05:15:50;;;;;;;0.20;0.20;;;;;;;21.57;30.00;97678.34;4497251;28;20021;-64
2023/11/04 05:18:01;;;;;;;0.45;0.30;;;;;;;21.58;30.60;97670.56;4497615;28;20038;-64
2023/11/04 05:20:11;;;;;;;0.20;0.20;;;;;;;21.57;30.21;97674.66;4497503;28;20034;-64
2023/11/04 05:22:23;;;;;;;0.20;0.20;;;;;;;21.56;30.21;97670.19;4497407;28;20049;-65
2023/11/04 05:24:37;;;;;;;0.20;0.20;;;;;;;21.57;30.88;97672.59;4497493;28;20038;-64
2023/11/04 05:26:47;;;;;;;0.13;0.10;;;;;;;21.57;30.69;97668.91;4496195;28;20026;-64
2023/11/04 05:28:57;;;;;;;0.10;0.10;;;;;;;21.54;30.48;97662.03;4498903;28;20038;-64
2023/11/04 05:31:08;;;;;;;0.20;0.20;;;;;;;21.54;30.63;97650.53;4496848;28;20115;-64
2023/11/04 05:33:19;;;;;;;0.30;0.30;;;;;;;21.57;30.51;97652.50;4497283;28;20024;-64
2023/11/04 05:35:30;;;;;;;0.30;0.17;;;;;;;21.58;30.47;97659.88;4496135;28;20042;-64
2023/11/04 05:37:40;;;;;;;0.20;0.20;;;;;;;21.58;30.80;97657.00;4497880;28;20031;-64
2023/11/04 05:39:51;;;;;;;0.43;0.20;;;;;;;21.57;30.76;97651.69;4497233;28;20121;-64
2023/11/04 05:42:02;;;;;;;0.30;0.20;;;;;;;21.57;31.17;97645.97;4495834;28;20483;-64
2023/11/04 05:44:12;;;;;;;0.20;0.10;;;;;;;21.57;30.58;97635.28;4496055;28;20081;-64
2023/11/04 05:46:23;;;;;;;0.20;0.20;;;;;;;21.58;30.83;97636.13;4498934;28;20110;-64
2023/11/04 05:48:35;;;;;;;0.30;0.20;;;;;;;21.54;30.86;97636.19;4497513;28;20121;-64
2023/11/04 05:50:46;;;;;;;0.22;0.22;;;;;;;21.56;30.93;97632.88;4498487;28;20081;-64
2023/11/04 05:52:56;;;;;;;0.10;0.10;;;;;;;21.55;31.23;97632.06;4497115;28;20034;-64
2023/11/04 05:55:07;;;;;;;0.10;0.10;;;;;;;21.52;30.85;97621.47;4495937;28;20539;-64
2023/11/04 05:57:18;;;;;;;0.15;0.10;;;;;;;21.55;31.20;97619.78;4498541;28;20498;-64
2023/11/04 05:59:28;;;;;;;0.10;0.10;;;;;;;21.56;30.81;97633.69;4496425;28;20057;-64
2023/11/04 06:01:39;;;;;;;0.10;0.10;;;;;;;21.42;31.15;97611.03;4495979;28;20079;-64
2023/11/04 06:03:51;;;;;;;0.20;0.10;;;;;;;21.56;31.02;97627.13;4497970;28;20499;-64
2023/11/04 06:06:02;;;;;;;0.30;0.17;;;;;;;21.54;30.83;97623.88;4498260;28;20897;-64
2023/11/04 06:08:13;;;;;;;0.20;0.10;;;;;;;21.53;31.23;97620.19;4496007;28;20049;-64
2023/11/04 06:10:23;;;;;;;0.15;0.15;;;;;;;21.56;31.31;97621.41;4498461;28;20033;-64
2023/11/04 06:12:34;;;;;;;0.38;0.30;;;;;;;21.53;31.06;97617.34;4495764;28;20034;-64
2023/11/04 06:14:45;;;;;;;0.20;0.20;;;;;;;21.55;31.29;97614.03;4496666;28;20049;-64
2023/11/04 06:16:56;;;;;;;0.20;0.20;;;;;;;21.50;31.18;97609.63;4498831;28;20096;-64
2023/11/04 06:19:06;;;;;;;0.20;0.20;;;;;;;21.54;31.08;97615.28;4497245;28;20077;-64
2023/11/04 06:21:17;;;;;;;0.10;0.10;;;;;;;21.54;31.15;97624.72;4500991;28;20040;-64
2023/11/04 06:23:27;;;;;;;0.17;0.17;;;;;;;21.40;31.13;97596.34;4495628;28;20407;-64
2023/11/04 06:25:38;;;;;;;0.43;0.20;;;;;;;21.55;30.90;97614.84;4495439;28;20104;-64
2023/11/04 06:27:48;;;;;;;0.45;0.30;;;;;;;21.51;30.86;97614.13;4496102;28;20116;-64
2023/11/04 06:29:59;;;;;;;0.20;0.20;;;;;;;21.39;31.02;97588.19;4496966;28;20586;-64
2023/11/04 06:32:09;;;;;;;0.30;0.20;;;;;;;21.55;31.10;97614.03;4497407;28;20113;-64
2023/11/04 06:34:20;;;;;;;0.22;0.20;;;;;;;21.53;30.96;97619.41;4496062;28;20113;-64
2023/11/04 06:36:31;;;;;;;0.20;0.20;;;;;;;21.55;31.16;97611.97;4497009;28;20042;-64
2023/11/04 06:38:42;;;;;;;0.30;0.30;;;;;;;21.51;31.26;97619.03;4495288;28;20878;-64
2023/11/04 06:40:52;;;;;;;0.20;0.20;;;;;;;21.54;31.01;97618.97;4500763;28;20042;-64
2023/11/04 06:43:02;;;;;;;0.30;0.28;;;;;;;21.54;31.01;97609.53;4495100;28;20173;-65
2023/11/04 06:45:13;;;;;;;0.30;0.25;;;;;;;21.53;30.93;97602.97;4495343;28;20634;-65
2023/11/04 06:47:23;;;;;;;0.20;0.20;;;;;;;21.53;31.31;97600.13;4495653;28;20403;-65
2023/11/04 06:49:34;;;;;;;0.20;0.20;;;;;;;21.51;31.00;97596.91;4498713;28;20049;-65
2023/11/04 06:51:45;;;;;;;0.20;0.20;;;;;;;21.43;31.46;97581.09;4497331;28;20041;-65
2023/11/04 06:53:56;;;;;;;0.40;0.20;;;;;;;21.53;31.37;97605.84;4498131;28;20084;-65
2023/11/04 06:56:08;;;;;;;0.38;0.20;;;;;;;21.55;31.40;97606.22;4499616;28;20034;-65
2023/11/04 06:58:18;;;;;;;0.40;0.38;;;;;;;21.54;31.15;97601.75;4498400;28;20874;-65
2023/11/04 07:00:29;;;;;;;0.20;0.20;;;;;;;21.53;31.17;97594.38;4499326;28;20031;-65
2023/11/04 07:02:41;;;;;;;0.30;0.20;;;;;;;21.53;31.25;97590.72;4499645;28;20085;-68
2023/11/04 07:04:51;;;;;;;0.32;0.20;;;;;;;21.51;31.70;97602.66;4499752;28;20862;-65
2023/11/04 07:07:02;;;;;;;0.52;0.30;;;;;;;21.51;31.42;97596.91;4497976;28;20035;-65
2023/11/04 07:09:12;;;;;;;0.20;0.20;;;;;;;21.52;31.51;97598.50;4499223;28;20575;-65
2023/11/04 07:11:23;;;;;;;0.25;0.20;;;;;;;21.53;30.84;97602.19;4500243;28;20057;-65
2023/11/04 07:13:34;;;;;;;0.20;0.20;;;;;;;21.53;31.61;97594.38;4499381;28;20033;-65
2023/11/04 07:15:45;;;;;;;0.20;0.20;;;;;;;21.54;31.55;97596.00;4500439;28;20855;-65
2023/11/04 07:17:55;;;;;;;0.20;0.20;;;;;;;21.52;31.78;97586.22;4500044;28;20117;-65
2023/11/04 07:20:09;;;;;;;0.52;0.20;;;;;;;21.53;32.04;97594.38;4498327;28;20042;-65
2023/11/04 07:22:20;;;;;;;0.20;0.20;;;;;;;21.51;31.90;97585.44;4496274;28;20041;-65
2023/11/04 07:24:31;;;;;;;0.20;0.17;;;;;;;21.50;31.93;97585.88;4497859;28;20046;-65
2023/11/04 07:26:42;;;;;;;0.30;0.30;;;;;;;21.51;32.19;97591.16;4498535;28;20100;-65
2023/11/04 07:28:52;;;;;;;0.30;0.25;;;;;;;21.53;32.45;97587.84;4497722;28;20093;-65
2023/11/04 07:31:04;;;;;;;0.63;0.20;;;;;;;21.52;32.17;97581.28;4498806;28;20043;-65
2023/11/04 07:33:15;;;;;;;0.30;0.20;;;;;;;21.48;32.60;97577.72;4498266;28;20099;-65
2023/11/04 07:35:25;;;;;;;0.13;0.13;;;;;;;21.52;32.09;97583.34;4500230;28;20037;-65
2023/11/04 07:37:37;;;;;;;0.20;0.20;;;;;;;21.51;32.32;97585.44;4498383;28;20120;-65
2023/11/04 07:39:47;;;;;;;0.20;0.20;;;;;;;21.50;32.26;97591.63;4509747;28;20417;-65
2023/11/04 07:41:58;;;;;;;0.28;0.28;;;;;;;21.51;32.59;97593.22;4501017;28;20088;-65
2023/11/04 07:44:08;;;;;;;0.17;0.17;;;;;;;21.50;32.81;97583.00;4499978;28;20022;-65
2023/11/04 07:46:19;;;;;;;0.30;0.20;;;;;;;21.51;32.82;97584.59;4505012;28;20081;-65
2023/11/04 07:48:29;;;;;;;0.45;0.20;;;;;;;21.51;32.48;97582.56;4497304;28;20042;-65
2023/11/04 07:50:40;;;;;;;0.20;0.20;;;;;;;21.47;32.88;97589.63;4499223;28;20042;-65
2023/11/04 07:52:51;;;;;;;0.22;0.10;;;;;;;21.52;32.51;97586.22;4499063;28;20604;-65
2023/11/04 07:55:05;;;;;;;0.20;0.20;;;;;;;21.51;32.62;97593.22;4496949;28;20045;-65
2023/11/04 07:57:16;;;;;;;0.30;0.30;;;;;;;21.51;33.03;97585.44;4498337;28;20034;-65
2023/11/04 07:59:26;;;;;;;0.20;0.20;;;;;;;21.51;32.90;97585.44;4503924;28;20072;-65
2023/11/04 08:01:37;;;;;;;0.63;0.40;;;;;;;21.50;32.57;97589.53;4499817;28;20022;-66
2023/11/04 08:03:47;;;;;;;0.20;0.20;;;;;;;21.47;32.96;97581.81;4498410;28;20038;-65
2023/11/04 08:05:58;;;;;;;0.28;0.28;;;;;;;21.50;32.49;97589.53;4498019;28;20038;-65
2023/11/04 08:08:13;;;;;;;0.30;0.30;;;;;;;21.50;32.90;97583.00;4499909;28;20188;-65
2023/11/04 08:10:24;;;;;;;0.20;0.20;;;;;;;21.52;32.70;97581.28;4506891;28;20060;-65
2023/11/04 08:12:34;;;;;;;0.20;0.20;;;;;;;21.49;33.21;97569.88;4498234;28;20045;-65
2023/11/04 08:14:45;;;;;;;0.30;0.28;;;;;;;21.49;32.67;97564.16;4498606;28;20094;-65
2023/11/04 08:16:56;;;;;;;0.20;0.20;;;;;;;21.50;32.56;97566.56;4497493;28;20403;-65
2023/11/04 08:19:06;;;;;;;0.22;0.20;;;;;;;21.51;32.70;97573.94;4496939;28;20069;-65
2023/11/04 08:21:16;;;;;;;0.25;0.20;;;;;;;21.46;32.73;97553.56;4498327;28;20514;-65
2023/11/04 08:23:27;;;;;;;0.32;0.20;;;;;;;21.51;32.85;97567.38;4498012;28;20379;-65
2023/11/04 08:25:37;;;;;;;0.28;0.20;;;;;;;21.50;32.78;97560.03;4495398;28;20029;-65
2023/11/04 08:27:48;;;;;;;0.35;0.30;;;;;;;21.47;32.98;97555.19;4498344;28;20045;-65
2023/11/04 08:29:58;;;;;;;0.32;0.20;;;;;;;21.46;32.83;97545.78;4498566;28;20104;-65
2023/11/04 08:32:08;;;;;;;0.30;0.30;;;;;;;21.48;33.25;97540.41;4499131;28;20037;-65
2023/11/04 08:34:19;;;;;;;0.40;0.20;;;;;;;21.46;33.36;97540.03;4496320;28;20093;-65
2023/11/04 08:36:29;;;;;;;0.20;0.20;;;;;;;21.51;33.09;97544.44;4498822;28;20030;-65
2023/11/04 08:38:40;;;;;;;0.20;0.20;;;;;;;21.50;33.28;97535.00;4498269;28;20161;-65
2023/11/04 08:40:51;;;;;;;0.40;0.20;;;;;;;21.51;33.20;97532.94;4498161;28;20093;-65
2023/11/04 08:43:01;;;;;;;0.20;0.20;;;;;;;21.51;33.63;97527.22;4498808;28;20035;-65
2023/11/04 08:45:13;;;;;;;0.30;0.30;;;;;;;21.52;33.88;97525.94;4498775;28;20491;-65
2023/11/04 08:47:24;;;;;;;0.28;0.28;;;;;;;21.48;33.82;97511.72;4497448;28;20048;-65
2023/11/04 08:49:35;;;;;;;0.40;0.20;;;;;;;21.50;33.95;97517.78;4497848;28;20046;-64
2023/11/04 08:51:45;;;;;;;0.20;0.20;;;;;;;21.51;33.84;97495.66;4498256;28;20039;-65
2023/11/04 08:53:56;;;;;;;0.28;0.28;;;;;;;21.52;33.63;97503.00;4503684;28;20033;-65
2023/11/04 08:56:07;;;;;;;0.20;0.20;;;;;;;21.46;33.84;97490.44;4496828;28;20045;-65
2023/11/04 08:58:17;;;;;;;0.40;0.30;;;;;;;21.48;33.92;97491.63;4497651;28;20041;-64
2023/11/04 09:00:29;;;;;;;0.43;0.30;;;;;;;21.51;33.71;97492.78;4499007;28;20471;-65
2023/11/04 09:02:39;;;;;;;0.30;0.30;;;;;;;21.49;34.06;97493.22;4497294;28;20049;-65
2023/11/04 09:04:49;;;;;;;0.20;0.20;;;;;;;21.47;33.66;97492.84;4496681;28;20053;-65
2023/11/04 09:07:00;;;;;;;0.20;0.20;;;;;;;21.48;34.10;97485.06;4497990;28;20057;-65
2023/11/04 09:09:10;;;;;;;0.30;0.20;;;;;;;21.50;33.41;97486.22;4498583;28;20043;-65
2023/11/04 09:11:21;;;;;;;0.20;0.20;;;;;;;21.51;33.92;97484.16;4496998;28;20042;-65
2023/11/04 09:13:31;;;;;;;0.20;0.20;;;;;;;21.47;33.58;97475.63;4497531;28;20129;-65
2023/11/04 09:15:41;;;;;;;0.30;0.30;;;;;;;21.50;33.64;97469.00;4497106;28;20042;-66
2023/11/04 09:17:52;;;;;;;0.60;0.55;;;;;;;21.50;33.76;97465.34;4496118;28;20145;-65
2023/11/04 09:20:03;;;;;;;0.50;0.40;;;;;;;21.50;33.65;97457.53;4498686;28;20493;-65
2023/11/04 09:22:13;;;;;;;0.70;0.40;;;;;;;21.49;33.60;97455.09;4495944;28;20038;-65
2023/11/04 09:24:24;;;;;;;0.85;0.30;;;;;;;21.46;33.50;97453.97;4497059;28;20097;-65
2023/11/04 09:26:35;;;;;;;0.50;0.40;;;;;;;21.49;33.45;97455.91;4497149;28;20042;-65
2023/11/04 09:28:45;;;;;;;0.30;0.30;;;;;;;21.49;33.84;97458.78;4498691;28;20030;-65
2023/11/04 09:30:56;;;;;;;0.30;0.30;;;;;;;21.50;33.88;97463.25;4497875;28;20042;-64
2023/11/04 09:33:08;;;;;;;0.30;0.30;;;;;;;21.49;33.85;97455.09;4502398;28;20025;-65
2023/11/04 09:35:19;;;;;;;0.45;0.30;;;;;;;21.49;33.62;97447.31;4502327;28;20045;-65
2023/11/04 09:37:29;;;;;;;0.75;0.20;;;;;;;21.50;33.59;97446.03;4498621;28;20044;-65
2023/11/04 09:39:40;;;;;;;0.65;0.30;;;;;;;21.49;33.44;97444.44;4495570;28;20080;-65
2023/11/04 09:41:53;;;;;;;0.45;0.30;;;;;;;21.49;33.81;97432.97;4500498;28;20116;-65
2023/11/04 09:44:04;;;;;;;0.10;0.10;;;;;;;21.50;33.45;97437.44;4494549;28;20169;-65
2023/11/04 09:46:14;;;;;;;0.40;0.30;;;;;;;21.49;33.59;97432.16;4496894;28;20037;-65
2023/11/04 09:48:24;;;;;;;0.45;0.30;;;;;;;21.50;33.60;97433.78;4497249;28;20021;-64
2023/11/04 09:50:35;;;;;;;0.20;0.20;;;;;;;21.41;33.33;97420.06;4505638;28;20104;-65
2023/11/04 09:52:50;;;;;;;0.20;0.20;;;;;;;21.50;33.54;97440.31;4496080;28;20133;-65
2023/11/04 09:55:04;;;;;;;0.35;0.20;;;;;;;21.46;33.55;97431.00;4498418;28;20042;-65
2023/11/04 09:57:15;;;;;;;0.30;0.30;;;;;;;21.50;33.56;97433.78;4497916;28;20042;-65
2023/11/04 09:59:27;;;;;;;0.40;0.20;;;;;;;21.50;33.44;97442.41;4496937;28;20545;-65
2023/11/04 10:01:37;;;;;;;0.32;0.28;;;;;;;21.51;33.25;97441.94;4495893;28;20048;-65
2023/11/04 10:03:48;;;;;;;0.20;0.20;;;;;;;21.49;33.68;97432.97;4497530;28;20038;-65
2023/11/04 10:05:58;;;;;;;0.20;0.20;;;;;;;21.50;33.33;97437.44;4495897;28;20057;-65
2023/11/04 10:08:11;;;;;;;0.40;0.30;;;;;;;21.38;33.84;97408.66;4494976;28;20050;-65
2023/11/04 10:10:21;;;;;;;0.22;0.22;;;;;;;21.43;34.07;97423.28;4495207;28;20112;-65
2023/11/04 10:12:32;;;;;;;0.28;0.28;;;;;;;21.49;33.88;97427.22;4495364;28;20065;-65
2023/11/04 10:14:42;;;;;;;0.65;0.50;;;;;;;21.50;33.88;97422.31;4495991;28;20037;-65
2023/11/04 10:16:53;;;;;;;0.30;0.30;;;;;;;21.50;33.52;97417.34;4496228;28;20462;-65